Time;durP1;ratioP1;P1;durP2;ratioP2;P2;SDS_P1;SDS_P2;PMS_P1;PMS_P2;Temp;Humidity;BMP_temperature;BMP_pressure;BME280_temperature;BME280_humidity;BME280_pressure;Samples;Min_cycle;Max_cycle;Signal;HPM_P1;HPM_P2
2022/06/20 00:01:08;;;;;;;;;4.33;2.33;;;;;15.48;64.59;101438.88;5027706;28;9162;-65
2022/06/20 00:03:41;;;;;;;;;2.00;2.00;;;;;15.48;64.06;101439.69;5031446;28;9287;-65
2022/06/20 00:06:13;;;;;;;;;3.00;2.00;;;;;15.46;64.51;101447.19;5031622;28;9246;-65
2022/06/20 00:08:40;;;;;;;;;1.00;1.00;;;;;15.48;64.04;101455.97;5031164;28;9169;-67
2022/06/20 00:11:13;;;;;;;;;2.00;1.67;;;;;15.47;64.27;101456.16;5028030;28;9231;-65
2022/06/20 00:13:43;;;;;;;;;4.33;2.00;;;;;15.38;64.02;101443.88;5028775;28;9220;-64
2022/06/20 00:16:13;;;;;;;;;2.00;2.00;;;;;15.32;64.10;101445.56;5029074;28;9467;-66
2022/06/20 00:18:41;;;;;;;;;2.00;2.00;;;;;15.32;64.75;101459.97;5027295;28;9230;-64
2022/06/20 00:21:11;;;;;;;;;1.00;1.00;;;;;15.31;64.30;101469.16;5030113;28;9222;-65
2022/06/20 00:23:38;;;;;;;;;1.00;1.00;;;;;15.31;64.12;101471.88;5023455;28;9145;-65
2022/06/20 00:26:04;;;;;;;;;1.00;1.00;;;;;15.30;64.12;101469.34;5020423;28;9174;-64
2022/06/20 00:28:31;;;;;;;;;1.00;1.00;;;;;15.30;63.77;101464.75;5029790;28;9228;-65
2022/06/20 00:30:58;;;;;;;;;0.33;0.33;;;;;15.33;63.59;101468.94;5030900;28;9193;-66
2022/06/20 00:33:26;;;;;;;;;3.67;2.33;;;;;15.33;63.52;101480.59;5030657;28;9226;-65
2022/06/20 00:35:53;;;;;;;;;1.33;1.33;;;;;15.32;63.61;101470.81;5030642;28;9215;-65
2022/06/20 00:38:22;;;;;;;;;1.00;1.00;;;;;15.31;63.42;101482.72;5030398;28;9292;-64
2022/06/20 00:40:51;;;;;;;;;1.00;1.00;;;;;15.33;63.33;101474.34;5030076;28;9410;-65
2022/06/20 00:43:26;;;;;;;;;0.00;0.00;;;;;15.33;62.98;101467.06;5020354;28;10172;-66
2022/06/20 00:45:56;;;;;;;;;2.00;2.00;;;;;15.28;62.84;101466.84;5010805;28;9120;-65
2022/06/20 00:48:30;;;;;;;;;1.00;1.00;;;;;15.29;62.82;101460.38;5010595;28;9403;-66
2022/06/20 00:51:04;;;;;;;;;1.00;1.00;;;;;15.29;62.90;101481.25;5020831;28;9167;-65
2022/06/20 00:53:50;;;;;;;;;1.67;1.67;;;;;15.29;62.96;101481.25;5030227;28;9235;-65
2022/06/20 00:56:29;;;;;;;;;4.33;1.33;;;;;15.31;62.68;101485.44;5021212;28;9231;-62
2022/06/20 00:59:01;;;;;;;;;2.00;2.00;;;;;15.33;62.81;101485.22;5030499;28;9406;-64
2022/06/20 01:01:34;;;;;;;;;3.00;0.33;;;;;15.29;62.63;101479.34;5030390;28;9211;-66
2022/06/20 01:04:07;;;;;;;;;1.67;1.67;;;;;15.28;62.44;101477.69;5030435;28;9136;-65
2022/06/20 01:06:40;;;;;;;;;2.00;1.33;;;;;15.17;62.38;101480.22;5028061;28;9325;-67
2022/06/20 01:09:09;;;;;;;;;0.67;0.67;;;;;15.13;62.55;101470.81;5026173;28;9356;-65
2022/06/20 01:11:54;;;;;;;;;0.67;0.67;;;;;15.12;62.19;101475.41;5026353;28;9328;-66
2022/06/20 01:14:26;;;;;;;;;2.00;1.00;;;;;15.05;62.07;101483.53;5028679;28;9170;-66
2022/06/20 01:16:57;;;;;;;;;2.00;1.33;;;;;15.02;62.09;101483.94;5020366;28;9148;-65
2022/06/20 01:19:42;;;;;;;;;1.00;1.00;;;;;15.02;62.15;101491.25;5027120;28;9136;-65
2022/06/20 01:22:21;;;;;;;;;1.00;1.00;;;;;15.05;62.26;101504.41;5021453;28;9222;-65
2022/06/20 01:25:01;;;;;;;;;0.67;0.67;;;;;15.08;62.19;101509.41;5029416;28;9233;-65
2022/06/20 01:27:37;;;;;;;;;1.67;0.67;;;;;15.14;62.11;101515.88;5027511;28;9152;-66
2022/06/20 01:30:04;;;;;;;;;1.00;1.00;;;;;15.13;61.71;101528.59;5028015;28;9195;-66
2022/06/20 01:32:31;;;;;;;;;1.00;1.00;;;;;15.15;61.26;101531.94;5020088;28;9235;-64
2022/06/20 01:35:01;;;;;;;;;0.67;0.67;;;;;15.16;61.43;101532.78;5033333;28;9166;-67
2022/06/20 01:37:32;;;;;;;;;0.00;0.00;;;;;15.16;61.57;101543.63;5019558;28;9193;-67
2022/06/20 01:40:04;;;;;;;;;1.67;1.67;;;;;15.19;61.28;101551.31;5027821;28;9164;-66
2022/06/20 01:42:32;;;;;;;;;2.00;1.00;;;;;15.19;61.37;101554.91;5026155;28;9258;-67
2022/06/20 01:48:06;;;;;;;;;1.00;1.00;;;;;15.21;61.36;101557.41;5027266;28;9076;-66
2022/06/20 01:50:33;;;;;;;;;1.00;0.00;;;;;15.20;61.30;101553.84;5028590;28;9080;-66
2022/06/20 01:53:08;;;;;;;;;1.00;0.00;;;;;15.18;60.98;101557.81;5028175;28;9246;-66
2022/06/20 01:55:35;;;;;;;;;1.67;1.00;;;;;15.17;61.15;101551.56;5026808;28;10034;-66
2022/06/20 01:58:16;;;;;;;;;1.00;1.00;;;;;15.16;61.24;101544.47;5032311;28;9219;-64
2022/06/20 02:00:43;;;;;;;;;0.00;0.00;;;;;15.16;61.05;101535.50;5029780;28;9306;-65
2022/06/20 02:03:13;;;;;;;;;0.33;0.33;;;;;15.17;61.32;101521.72;5020908;28;9174;-65
2022/06/20 02:05:44;;;;;;;;;1.00;1.00;;;;;15.17;60.92;101518.19;5015972;28;9157;-65
2022/06/20 02:08:13;;;;;;;;;1.00;1.00;;;;;15.09;61.08;101520.03;5026770;28;9224;-64
2022/06/20 02:10:45;;;;;;;;;2.33;0.33;;;;;15.07;61.35;101518.59;5027869;28;9931;-66
2022/06/20 02:13:15;;;;;;;;;0.00;0.00;;;;;15.08;61.48;101514.84;5021911;28;9187;-66
2022/06/20 02:15:43;;;;;;;;;0.67;0.67;;;;;15.13;61.58;101517.75;5017133;28;9340;-66
2022/06/20 02:18:12;;;;;;;;;0.67;0.00;;;;;15.10;61.58;101501.88;5028039;28;9339;-64
2022/06/20 02:20:46;;;;;;;;;0.00;0.00;;;;;15.07;61.37;101502.31;5021399;28;9174;-65
2022/06/20 02:23:20;;;;;;;;;0.00;0.00;;;;;15.00;61.51;101486.03;5021635;28;9302;-65
2022/06/20 02:25:49;;;;;;;;;1.67;1.67;;;;;14.96;61.74;101489.38;5024876;28;9296;-66
2022/06/20 02:28:21;;;;;;;;;0.33;0.33;;;;;14.84;62.02;101495.41;5029250;28;9379;-63
2022/06/20 02:30:48;;;;;;;;;1.25;1.25;;;;;14.81;62.35;101498.53;5026936;28;9925;-65
2022/06/20 02:33:18;;;;;;;;;0.00;0.00;;;;;14.83;62.48;101499.16;5031152;28;9381;-65
2022/06/20 02:35:45;;;;;;;;;1.00;0.33;;;;;14.88;62.30;101505.84;5026420;28;10204;-65
2022/06/20 02:38:12;;;;;;;;;1.00;1.00;;;;;14.86;62.24;101500.63;5028962;28;9224;-65
2022/06/20 02:40:42;;;;;;;;;0.00;0.00;;;;;14.84;62.41;101497.28;5027904;28;9218;-66
2022/06/20 02:43:13;;;;;;;;;1.00;1.00;;;;;14.84;62.12;101497.28;5027830;28;10023;-66
2022/06/20 02:45:41;;;;;;;;;0.00;0.00;;;;;14.86;62.18;101499.78;5025264;28;9215;-66
2022/06/20 02:48:10;;;;;;;;;1.00;1.00;;;;;14.82;62.35;101500.19;5029922;28;9287;-66
2022/06/20 02:50:42;;;;;;;;;1.00;1.00;;;;;14.82;62.19;101502.06;5031822;28;9409;-66
2022/06/20 02:53:19;;;;;;;;;1.00;1.00;;;;;14.76;62.27;101494.78;5031513;28;9222;-65
2022/06/20 02:55:48;;;;;;;;;1.00;1.00;;;;;14.69;62.26;101492.03;5019233;28;9220;-66
2022/06/20 02:58:22;;;;;;;;;1.00;0.67;;;;;14.69;62.47;101500.16;5029557;28;9297;-66
2022/06/20 03:00:58;;;;;;;;;1.67;1.00;;;;;14.71;62.38;101503.53;5031268;28;9301;-64
2022/06/20 03:03:35;;;;;;;;;1.00;1.00;;;;;14.72;62.21;101510.59;5029791;28;9395;-66
2022/06/20 03:06:05;;;;;;;;;1.00;1.00;;;;;14.71;62.27;101508.94;5032264;28;9331;-66
2022/06/20 03:08:32;;;;;;;;;1.00;1.00;;;;;14.70;62.24;101493.72;5037065;28;9309;-66
2022/06/20 03:11:04;;;;;;;;;2.00;2.00;;;;;14.71;62.23;101489.16;5031392;28;9288;-66
2022/06/20 03:13:33;;;;;;;;;0.00;0.00;;;;;14.71;62.81;101483.72;5031668;28;9422;-67
2022/06/20 03:16:02;;;;;;;;;1.00;0.00;;;;;14.66;62.52;101478.91;5032144;28;9371;-66
2022/06/20 03:18:31;;;;;;;;;3.67;1.00;;;;;14.65;62.38;101477.25;5031795;28;10173;-66
2022/06/20 03:20:57;;;;;;;;;1.00;1.00;;;;;14.65;62.29;101481.81;5032340;28;9901;-66
2022/06/20 03:23:26;;;;;;;;;2.50;1.75;;;;;14.64;62.27;101483.69;5031430;28;10072;-66
2022/06/20 03:25:56;;;;;;;;;1.00;0.00;;;;;14.63;62.29;101482.03;5031999;28;9446;-65
2022/06/20 03:28:24;;;;;;;;;1.00;1.00;;;;;14.66;62.41;101478.91;5023869;28;9292;-66
2022/06/20 03:31:02;;;;;;;;;3.50;2.00;;;;;14.66;62.35;101480.78;5031857;28;9492;-65
2022/06/20 03:33:30;;;;;;;;;2.00;1.25;;;;;14.63;62.44;101473.91;5032032;28;10256;-66
2022/06/20 03:36:05;;;;;;;;;1.75;1.75;;;;;14.63;62.41;101473.09;5020102;28;9390;-66
2022/06/20 03:38:35;;;;;;;;;1.25;1.25;;;;;14.61;62.42;101475.97;5031253;28;9470;-66
2022/06/20 03:41:04;;;;;;;;;0.75;0.75;;;;;14.61;62.72;101478.69;5030577;28;9516;-66
2022/06/20 03:43:33;;;;;;;;;0.25;0.25;;;;;14.60;62.60;101479.72;5028565;28;9382;-66
2022/06/20 03:46:04;;;;;;;;;2.00;1.00;;;;;14.59;62.81;101480.78;5022408;28;9517;-65
2022/06/20 03:48:44;;;;;;;;;0.00;0.00;;;;;14.60;62.74;101474.31;5030316;28;9296;-65
2022/06/20 03:51:17;;;;;;;;;2.00;1.75;;;;;14.60;62.75;101474.31;5028129;28;9308;-62
2022/06/20 03:53:52;;;;;;;;;2.00;0.75;;;;;14.59;62.76;101470.78;5031383;28;9440;-65
2022/06/20 03:56:20;;;;;;;;;3.00;2.00;;;;;14.59;62.65;101461.81;5030605;28;9387;-64
2022/06/20 03:58:53;;;;;;;;;2.00;2.00;;;;;14.60;62.74;101460.78;5038863;28;9354;-64
2022/06/20 04:01:29;;;;;;;;;1.00;1.00;;;;;14.60;62.60;101463.47;5051377;28;9298;-62
2022/06/20 04:04:27;;;;;;;;;4.00;1.25;;;;;14.61;62.87;101453.47;5051309;28;9361;-65
2022/06/20 04:07:02;;;;;;;;;2.00;2.00;;;;;14.67;62.81;101458.91;5028103;28;9387;-65
2022/06/20 04:12:42;;;;;;;;;2.00;1.33;;;;;14.92;61.88;101461.03;5029125;28;9396;-63
2022/06/20 04:15:31;;;;;;;;;0.33;0.33;;;;;14.84;61.89;101465.59;5028608;28;9379;-65
2022/06/20 04:21:21;;;;;;;;;2.00;2.00;;;;;14.65;62.84;101473.69;5029488;28;9379;-65
2022/06/20 04:24:04;;;;;;;;;0.75;0.75;;;;;14.62;62.74;101484.94;5031155;28;9318;-65
2022/06/20 04:26:40;;;;;;;;;2.00;1.00;;;;;14.60;62.50;101493.28;5026157;28;9470;-65
2022/06/20 04:29:19;;;;;;;;;1.00;1.00;;;;;14.55;62.64;101496.59;5034732;28;9301;-65
2022/06/20 04:32:35;;;;;;;;;3.00;2.00;;;;;14.52;62.77;101494.31;5020819;28;9459;-65
2022/06/20 04:35:20;;;;;;;;;6.00;3.00;;;;;14.45;63.00;101487.16;5028828;28;9367;-64
2022/06/20 04:37:56;;;;;;;;;1.75;1.75;;;;;14.49;62.96;101491.16;5027058;28;9543;-66
2022/06/20 04:40:38;;;;;;;;;3.00;2.00;;;;;14.51;62.94;101492.63;5029570;28;9428;-65
2022/06/20 04:43:14;;;;;;;;;1.33;1.00;;;;;14.53;63.16;101484.28;5025872;28;9299;-66
2022/06/20 04:45:52;;;;;;;;;2.00;2.00;;;;;14.50;62.93;101493.69;5031295;28;9482;-69
2022/06/20 04:48:21;;;;;;;;;2.75;2.00;;;;;14.45;62.90;101492.56;5021927;28;9389;-65
2022/06/20 04:50:56;;;;;;;;;2.00;2.00;;;;;14.48;63.25;101498.44;5036111;28;9452;-68
2022/06/20 04:53:33;;;;;;;;;2.50;2.50;;;;;14.47;63.02;101498.63;5026221;28;9329;-65
2022/06/20 04:56:03;;;;;;;;;3.50;2.50;;;;;14.50;63.12;101498.25;5010320;28;9371;-65
2022/06/20 04:58:35;;;;;;;;;2.00;1.00;;;;;14.53;63.19;101508.69;5025567;28;9527;-66
2022/06/20 05:01:05;;;;;;;;;1.67;1.00;;;;;14.50;63.00;101506.38;5043951;28;9488;-67
2022/06/20 05:03:37;;;;;;;;;3.67;3.00;;;;;14.50;62.70;101507.22;5038475;28;9405;-66
2022/06/20 05:06:06;;;;;;;;;2.00;1.00;;;;;14.53;62.85;101516.81;5026616;28;9375;-66
2022/06/20 05:08:37;;;;;;;;;2.00;2.00;;;;;14.57;62.62;101507.22;5028381;28;9386;-65
2022/06/20 05:11:11;;;;;;;;;6.67;3.00;;;;;14.57;62.27;101509.94;5038279;28;9363;-67
2022/06/20 05:13:48;;;;;;;;;4.00;3.33;;;;;14.52;62.59;101512.44;5020368;28;9301;-67
2022/06/20 05:16:19;;;;;;;;;3.00;2.00;;;;;14.56;62.56;101509.09;5036195;28;10110;-66
2022/06/20 05:18:50;;;;;;;;;2.00;2.00;;;;;14.59;62.05;101514.13;5025739;28;9440;-66
2022/06/20 05:21:27;;;;;;;;;1.67;1.00;;;;;14.62;61.93;101509.31;5030124;28;9277;-68
2022/06/20 05:24:00;;;;;;;;;3.50;3.50;;;;;14.62;61.94;101510.16;5021389;28;9297;-66
2022/06/20 05:26:32;;;;;;;;;5.00;3.50;;;;;14.67;61.96;101512.28;5031625;28;9488;-66
2022/06/20 05:29:04;;;;;;;;;2.00;2.00;;;;;14.75;61.68;101507.50;5018280;28;9445;-66
2022/06/20 05:31:34;;;;;;;;;1.50;1.50;;;;;14.80;61.90;101512.28;5001777;28;9399;-65
2022/06/20 05:34:16;;;;;;;;;5.00;2.00;;;;;14.92;62.00;101516.06;5038221;28;9394;-65
2022/06/20 05:37:09;;;;;;;;;2.00;2.00;;;;;15.15;61.68;101521.09;5029771;28;9350;-64
2022/06/20 05:39:43;;;;;;;;;2.33;2.33;;;;;15.40;60.99;101517.75;5028110;28;9951;-65
2022/06/20 05:42:13;;;;;;;;;5.00;3.00;;;;;15.57;60.30;101516.28;5021706;28;10000;-65
2022/06/20 05:44:39;;;;;;;;;3.00;2.33;;;;;15.66;59.69;101519.63;5030092;28;9939;-65
2022/06/20 05:47:31;;;;;;;;;5.67;3.00;;;;;15.64;59.28;101527.97;5029540;28;9227;-65
2022/06/20 05:50:22;;;;;;;;;3.33;2.33;;;;;15.62;58.94;101535.47;5028109;28;9197;-65
2022/06/20 05:52:51;;;;;;;;;3.00;3.00;;;;;15.63;59.11;101539.84;5022681;28;9082;-66
2022/06/20 05:55:27;;;;;;;;;3.00;2.00;;;;;15.77;58.92;101541.53;5027787;28;9233;-64
2022/06/20 05:57:56;;;;;;;;;2.50;2.50;;;;;15.87;58.36;101534.84;5017232;28;8997;-65
2022/06/20 06:00:26;;;;;;;;;2.67;2.00;;;;;15.95;58.42;101540.88;5027217;28;10013;-67
2022/06/20 06:02:59;;;;;;;;;2.33;2.00;;;;;15.97;57.84;101535.25;5019034;28;9008;-67
2022/06/20 06:05:36;;;;;;;;;4.00;2.00;;;;;15.97;58.39;101551.53;5028658;28;9234;-63
2022/06/20 06:08:17;;;;;;;;;2.33;2.33;;;;;16.03;58.23;101551.50;5029436;28;9087;-67
2022/06/20 06:11:09;;;;;;;;;5.00;3.00;;;;;16.01;58.52;101542.75;5021269;28;9410;-68
2022/06/20 06:14:08;;;;;;;;;2.00;2.00;;;;;16.04;58.79;101545.03;5029569;28;9305;-67
2022/06/20 06:16:51;;;;;;;;;2.67;2.00;;;;;16.03;57.79;101540.63;5005736;28;9093;-67
2022/06/20 06:19:49;;;;;;;;;5.00;2.00;;;;;15.96;57.92;101552.56;5027434;28;9174;-67
2022/06/20 06:22:21;;;;;;;;;3.33;3.33;;;;;15.88;57.36;101552.78;5033234;28;9307;-67
2022/06/20 06:24:53;;;;;;;;;1.00;1.00;;;;;15.90;58.79;101553.44;5026371;28;9327;-67
2022/06/20 06:27:25;;;;;;;;;4.00;3.00;;;;;15.90;57.84;101567.00;5030991;28;9862;-66
2022/06/20 06:30:00;;;;;;;;;4.00;1.67;;;;;15.80;57.37;101560.13;5033492;28;9065;-65
2022/06/20 06:32:35;;;;;;;;;5.67;5.00;;;;;15.76;57.68;101564.31;5030962;28;9782;-67
2022/06/20 06:35:07;;;;;;;;;5.33;3.00;;;;;15.79;57.86;101577.44;5033190;28;9036;-65
2022/06/20 06:37:44;;;;;;;;;4.00;2.00;;;;;15.82;57.89;101581.63;5032240;28;9055;-66
2022/06/20 06:40:31;;;;;;;;;2.00;2.00;;;;;15.82;58.11;101587.06;5025178;28;9018;-66
2022/06/20 06:43:00;;;;;;;;;2.00;2.00;;;;;15.80;58.09;101592.72;5032916;28;9010;-66
2022/06/20 06:45:31;;;;;;;;;2.00;2.00;;;;;15.85;58.01;101589.34;5032601;28;8999;-66
2022/06/20 06:48:08;;;;;;;;;1.67;1.67;;;;;15.85;58.22;101591.25;5032739;28;9115;-65
2022/06/20 06:50:43;;;;;;;;;3.00;3.00;;;;;15.87;57.94;101589.13;5021829;28;9246;-66
2022/06/20 06:53:20;;;;;;;;;1.00;1.00;;;;;15.92;58.00;101575.75;5024483;28;9251;-66
2022/06/20 06:56:01;;;;;;;;;3.67;2.33;;;;;16.00;57.94;101573.69;5026611;28;9110;-66
2022/06/20 06:58:56;;;;;;;;;3.00;2.00;;;;;16.05;57.41;101578.47;5023863;28;9215;-66
2022/06/20 07:01:29;;;;;;;;;3.00;2.33;;;;;16.06;56.63;101583.66;5025870;28;9169;-66
2022/06/20 07:04:22;;;;;;;;;3.67;1.00;;;;;16.08;55.66;101588.88;5025558;28;9121;-66
2022/06/20 07:06:51;;;;;;;;;2.00;2.00;;;;;16.07;54.82;101589.94;5026320;28;9085;-65
2022/06/20 07:09:36;;;;;;;;;2.00;2.00;;;;;16.04;54.44;101583.06;5027578;28;9881;-65
2022/06/20 07:12:14;;;;;;;;;2.00;2.00;;;;;16.01;54.89;101585.38;5026316;28;9155;-65
2022/06/20 07:14:43;;;;;;;;;2.00;1.33;;;;;16.01;55.69;101588.91;5023220;28;9020;-65
2022/06/20 07:17:28;;;;;;;;;1.00;1.00;;;;;16.04;54.88;101591.22;5015979;28;9879;-65
2022/06/20 07:19:56;;;;;;;;;1.67;1.67;;;;;16.05;54.95;101586.59;5025465;28;8895;-66
2022/06/20 07:22:31;;;;;;;;;1.33;1.33;;;;;16.10;54.87;101584.09;5022757;28;9188;-65
2022/06/20 07:24:58;;;;;;;;;2.33;1.67;;;;;16.19;54.70;101585.50;5026237;28;9044;-66
2022/06/20 07:27:40;;;;;;;;;2.00;2.00;;;;;16.30;55.10;101582.16;5024761;28;8914;-65
2022/06/20 07:30:21;;;;;;;;;2.00;2.00;;;;;16.40;54.96;101589.00;5025806;28;9084;-66
2022/06/20 07:32:53;;;;;;;;;2.67;2.00;;;;;16.44;54.42;101590.25;5024695;28;9085;-66
2022/06/20 07:35:49;;;;;;;;;1.67;1.67;;;;;16.44;54.14;101603.81;5027695;28;8992;-67
2022/06/20 07:38:24;;;;;;;;;3.00;2.00;;;;;16.44;54.09;101596.50;5020697;28;9060;-66
2022/06/20 07:41:04;;;;;;;;;1.00;1.00;;;;;16.37;54.08;101592.16;5039106;28;9099;-66
2022/06/20 07:43:56;;;;;;;;;1.33;1.33;;;;;16.37;54.33;101598.44;5031837;28;8984;-66
2022/06/20 07:46:40;;;;;;;;;2.00;2.00;;;;;16.46;54.51;101604.47;5021724;28;9199;-65
2022/06/20 07:49:19;;;;;;;;;2.00;2.00;;;;;16.53;53.84;101608.00;5032677;28;8914;-66
2022/06/20 07:51:51;;;;;;;;;3.00;1.67;;;;;16.55;53.60;101601.28;5025972;28;9060;-66
2022/06/20 07:54:27;;;;;;;;;2.00;1.00;;;;;16.67;54.05;101606.03;5023685;28;8935;-67
2022/06/20 07:57:02;;;;;;;;;2.00;2.00;;;;;16.73;53.71;101603.34;5020955;28;8907;-67
2022/06/20 07:59:59;;;;;;;;;2.00;2.00;;;;;16.76;53.46;101602.06;5029784;28;9153;-66
2022/06/20 08:02:44;;;;;;;;;2.00;2.00;;;;;16.78;53.44;101600.78;5021531;28;9690;-66
2022/06/20 08:05:16;;;;;;;;;2.00;1.00;;;;;16.82;52.48;101598.47;5015646;28;8911;-67
2022/06/20 08:07:51;;;;;;;;;2.33;0.67;;;;;16.79;50.26;101596.19;5032640;28;8985;-65
2022/06/20 08:10:44;;;;;;;;;0.00;0.00;;;;;16.80;49.99;101612.28;5032826;28;8897;-65
2022/06/20 08:13:13;;;;;;;;;4.00;3.33;;;;;16.74;49.89;101604.16;5028156;28;8935;-65
2022/06/20 08:15:57;;;;;;;;;3.00;1.00;;;;;16.83;49.79;101610.19;5032407;28;8919;-65
2022/06/20 08:18:25;;;;;;;;;1.00;1.00;;;;;16.86;49.77;101605.16;5032344;28;8908;-65
2022/06/20 08:21:10;;;;;;;;;1.00;1.00;;;;;16.88;48.46;101613.91;5032538;28;8921;-65
2022/06/20 08:23:45;;;;;;;;;1.00;1.00;;;;;16.94;47.84;101613.06;5032497;28;9786;-66
2022/06/20 08:26:30;;;;;;;;;3.67;1.67;;;;;17.03;47.44;101625.34;5031883;28;8902;-65
2022/06/20 08:29:05;;;;;;;;;1.00;1.00;;;;;17.04;46.66;101627.00;5031671;28;8976;-65
2022/06/20 08:31:34;;;;;;;;;1.00;1.00;;;;;17.05;47.13;101625.13;5032166;28;8907;-65
2022/06/20 08:34:11;;;;;;;;;1.75;1.75;;;;;17.05;47.07;101622.41;5023635;28;8864;-64
2022/06/20 08:37:09;;;;;;;;;1.00;1.00;;;;;17.22;47.24;101620.84;5030729;28;8837;-65
2022/06/20 08:39:49;;;;;;;;;1.00;1.00;;;;;17.31;47.83;101621.41;4998762;28;8839;-66
2022/06/20 08:42:40;;;;;;;;;2.00;2.00;;;;;17.27;48.82;101625.63;5012138;28;8843;-65
2022/06/20 08:45:29;;;;;;;;;2.75;1.75;;;;;17.17;49.78;101633.41;5011747;28;8881;-66
2022/06/20 08:48:44;;;;;;;;;0.50;0.50;;;;;17.09;50.85;101644.56;5012165;28;8840;-66
2022/06/20 08:52:07;;;;;;;;;2.00;2.00;;;;;17.16;51.37;101631.75;5000163;28;8821;-66
2022/06/20 08:54:45;;;;;;;;;2.00;2.00;;;;;17.28;50.22;101635.44;4950893;28;8854;-66
2022/06/20 08:57:46;;;;;;;;;5.00;3.00;;;;;17.18;48.89;101646.81;5023118;28;8912;-66
2022/06/20 09:01:05;;;;;;;;;1.75;1.00;;;;;17.17;48.59;101647.03;5030602;28;8920;-65
2022/06/20 09:04:08;;;;;;;;;1.00;1.00;;;;;17.16;48.67;101642.66;5031567;28;8845;-66
2022/06/20 09:06:35;;;;;;;;;2.00;2.00;;;;;17.07;48.33;101650.22;4975345;28;8908;-67
2022/06/20 09:09:23;;;;;;;;;3.00;1.00;;;;;17.01;48.83;101656.53;5023585;28;8910;-65
2022/06/20 09:12:09;;;;;;;;;0.33;0.33;;;;;17.12;49.10;101646.84;5031513;28;8911;-66
2022/06/20 09:14:54;;;;;;;;;1.00;1.00;;;;;17.24;49.57;101642.38;5031482;28;8990;-65
2022/06/20 09:17:24;;;;;;;;;1.00;1.00;;;;;17.37;49.72;101655.06;5031741;28;8911;-65
2022/06/20 09:19:54;;;;;;;;;1.00;1.00;;;;;17.30;48.70;101653.25;5031319;28;8928;-66
2022/06/20 09:22:40;;;;;;;;;1.50;1.50;;;;;17.23;48.81;101670.66;5030837;28;8809;-66
2022/06/20 09:25:21;;;;;;;;;2.00;2.00;;;;;17.18;48.85;101668.59;5031367;28;8825;-66
2022/06/20 09:27:58;;;;;;;;;3.00;1.00;;;;;17.09;48.63;101667.16;5031291;28;9013;-66
2022/06/20 09:31:09;;;;;;;;;3.00;2.00;;;;;17.10;49.00;101671.56;5031391;28;8902;-65
2022/06/20 09:33:44;;;;;;;;;2.33;1.33;;;;;17.13;48.17;101679.28;5030949;28;8999;-65
2022/06/20 09:36:21;;;;;;;;;2.25;2.00;;;;;17.22;47.82;101669.00;5030777;28;8997;-65
2022/06/20 09:39:15;;;;;;;;;1.25;1.25;;;;;17.38;48.02;101664.91;5026531;28;8842;-65
2022/06/20 09:41:50;;;;;;;;;2.00;2.00;;;;;17.40;48.51;101662.81;5031137;28;8814;-65
2022/06/20 09:44:32;;;;;;;;;2.00;2.00;;;;;17.40;48.59;101665.53;5031061;28;8851;-66
2022/06/20 09:47:31;;;;;;;;;1.00;1.00;;;;;17.41;48.09;101670.75;5030637;28;8864;-66
2022/06/20 09:50:32;;;;;;;;;1.50;1.50;;;;;17.38;48.07;101679.38;5030733;28;8826;-65
2022/06/20 09:53:16;;;;;;;;;1.75;1.75;;;;;17.30;48.27;101677.72;5030249;28;8868;-64
2022/06/20 09:56:02;;;;;;;;;1.00;1.00;;;;;17.30;48.06;101677.72;5034117;28;8826;-65
2022/06/20 09:58:28;;;;;;;;;3.25;1.75;;;;;17.24;47.87;101675.88;5034836;28;8845;-65
2022/06/20 10:01:06;;;;;;;;;2.67;2.00;;;;;17.23;47.83;101686.97;5034880;28;8888;-65
2022/06/20 10:03:54;;;;;;;;;1.67;1.67;;;;;17.29;48.25;101686.09;5035395;28;9592;-66
2022/06/20 10:06:52;;;;;;;;;2.00;2.00;;;;;17.24;47.40;101691.38;5035421;28;9016;-65
2022/06/20 10:09:46;;;;;;;;;2.00;1.00;;;;;17.41;47.93;101688.97;5034285;28;9540;-67
2022/06/20 10:12:34;;;;;;;;;3.00;3.00;;;;;17.49;47.59;101692.25;5034099;28;8841;-67
2022/06/20 10:15:12;;;;;;;;;2.00;2.00;;;;;17.50;47.98;101699.38;5033869;28;8856;-66
2022/06/20 10:18:02;;;;;;;;;1.75;1.75;;;;;17.46;48.76;101710.91;5034562;28;8830;-66
2022/06/20 10:20:44;;;;;;;;;3.00;2.00;;;;;17.41;48.94;101708.84;5014429;28;8912;-66
2022/06/20 10:23:40;;;;;;;;;4.25;2.00;;;;;17.57;48.54;101698.50;5033926;28;8892;-65
2022/06/20 10:26:36;;;;;;;;;1.00;1.00;;;;;17.76;47.42;101697.56;5032392;28;8845;-67
2022/06/20 10:29:22;;;;;;;;;1.00;1.00;;;;;17.83;47.90;101698.34;5033895;28;8981;-64
2022/06/20 10:32:17;;;;;;;;;3.75;2.00;;;;;17.90;49.15;101698.28;5033353;28;8817;-66
2022/06/20 10:35:14;;;;;;;;;3.50;2.50;;;;;17.94;49.06;101713.94;5034226;28;8849;-67
2022/06/20 10:38:02;;;;;;;;;2.00;2.00;;;;;17.91;47.96;101713.59;5033577;28;9512;-67
2022/06/20 10:40:52;;;;;;;;;3.00;3.00;;;;;17.78;48.15;101719.94;5034032;28;8865;-68
2022/06/20 10:43:40;;;;;;;;;2.00;2.00;;;;;17.66;48.48;101714.38;5034310;28;8927;-67
2022/06/20 10:46:24;;;;;;;;;3.75;2.00;;;;;17.74;47.91;101716.84;5033533;28;8845;-66
2022/06/20 10:49:33;;;;;;;;;4.00;2.75;;;;;17.78;48.36;101707.19;5032302;28;8836;-67
2022/06/20 10:52:12;;;;;;;;;4.25;4.25;;;;;17.79;48.16;101713.47;5033418;28;8887;-66
2022/06/20 10:54:48;;;;;;;;;1.25;1.25;;;;;17.87;47.90;101715.91;5034329;28;8925;-65
2022/06/20 10:57:28;;;;;;;;;2.25;2.25;;;;;17.81;48.32;101715.94;5033890;28;8919;-64
2022/06/20 11:00:06;;;;;;;;;3.25;3.25;;;;;17.71;48.62;101708.25;5032875;28;8956;-67
2022/06/20 11:03:08;;;;;;;;;2.50;2.25;;;;;17.63;49.61;101714.78;5032460;28;8833;-66
2022/06/20 11:05:44;;;;;;;;;2.25;2.25;;;;;17.69;49.43;101710.34;5021339;28;8849;-68
2022/06/20 11:08:46;;;;;;;;;3.50;2.75;;;;;17.92;49.54;101712.53;5031972;28;8896;-65
2022/06/20 11:11:29;;;;;;;;;2.75;2.75;;;;;17.99;49.44;101718.75;5032585;28;8825;-65
2022/06/20 11:14:06;;;;;;;;;3.50;2.00;;;;;17.89;49.01;101715.69;5033851;28;8927;-66
2022/06/20 11:16:45;;;;;;;;;3.00;3.00;;;;;17.79;49.63;101711.56;5034218;28;8825;-67
2022/06/20 11:19:40;;;;;;;;;4.00;3.00;;;;;17.86;49.34;101716.13;5032812;28;9683;-67
2022/06/20 11:22:15;;;;;;;;;3.00;3.00;;;;;17.99;48.80;101724.22;5032180;28;8813;-67
2022/06/20 11:25:07;;;;;;;;;3.25;3.25;;;;;18.10;47.66;101714.47;5033241;28;8825;-65
2022/06/20 11:28:07;;;;;;;;;5.75;3.00;;;;;18.08;47.59;101720.13;5033227;28;9513;-66
2022/06/20 11:30:55;;;;;;;;;3.00;3.00;;;;;18.20;47.61;101718.34;5031816;28;8894;-66
2022/06/20 11:34:08;;;;;;;;;2.50;2.50;;;;;18.30;47.52;101717.84;5031734;28;8872;-66
2022/06/20 11:37:17;;;;;;;;;2.25;2.00;;;;;18.32;48.07;101723.09;5031223;28;8899;-66
2022/06/20 11:40:06;;;;;;;;;2.00;2.00;;;;;18.17;48.56;101724.25;5000917;28;8853;-68
2022/06/20 11:43:09;;;;;;;;;4.00;2.00;;;;;18.08;49.05;101722.88;5031640;28;8841;-67
2022/06/20 11:45:54;;;;;;;;;5.25;3.50;;;;;18.03;49.50;101730.88;5031868;28;8904;-66
2022/06/20 11:48:54;;;;;;;;;4.25;2.00;;;;;18.15;48.86;101730.97;5013024;28;8839;-66
2022/06/20 11:51:50;;;;;;;;;4.00;3.00;;;;;18.19;49.15;101729.47;5017636;28;8813;-66
2022/06/20 11:54:41;;;;;;;;;2.25;2.25;;;;;18.25;48.64;101729.41;5034104;28;8841;-66
2022/06/20 11:57:21;;;;;;;;;3.50;2.25;;;;;18.39;48.69;101726.56;5033649;28;8826;-67
2022/06/20 11:59:48;;;;;;;;;3.00;3.00;;;;;18.62;47.93;101725.91;5013808;28;8870;-66
2022/06/20 12:02:39;;;;;;;;;2.25;2.25;;;;;18.66;47.53;101730.69;5016928;28;8934;-66
2022/06/20 12:05:18;;;;;;;;;4.75;4.00;;;;;18.62;47.44;101734.91;5025002;28;8829;-66
2022/06/20 12:08:12;;;;;;;;;3.50;3.00;;;;;18.75;47.22;101734.81;5032542;28;8845;-66
2022/06/20 12:10:57;;;;;;;;;3.00;3.00;;;;;18.88;46.20;101717.47;5033560;28;8895;-66
2022/06/20 12:13:46;;;;;;;;;3.50;3.50;;;;;18.82;45.69;101729.28;5032388;28;9622;-67
2022/06/20 12:16:12;;;;;;;;;5.25;3.00;;;;;18.90;45.41;101728.97;5012998;28;9266;-67
2022/06/20 12:24:47;;;;;;;;;2.00;2.00;;;;;18.80;44.53;101742.34;5032859;28;8848;-68
2022/06/20 12:27:18;;;;;;;;;4.00;2.25;;;;;18.69;45.22;101740.31;5032539;28;8818;-67
2022/06/20 12:29:46;;;;;;;;;2.50;2.50;;;;;18.65;45.69;101736.38;5032078;28;8832;-67
2022/06/20 12:32:26;;;;;;;;;3.00;2.00;;;;;18.74;45.96;101738.59;5032504;28;8833;-65
2022/06/20 12:34:59;;;;;;;;;3.00;3.00;;;;;18.86;45.53;101743.31;5014731;28;8865;-66
2022/06/20 12:37:35;;;;;;;;;2.25;2.25;;;;;18.91;45.67;101740.72;5032082;28;8847;-66
2022/06/20 12:40:15;;;;;;;;;4.50;3.75;;;;;19.03;44.74;101749.81;5032243;28;8894;-67
2022/06/20 12:42:56;;;;;;;;;10.67;9.33;;;;;19.00;44.53;101753.03;5032722;28;8829;-66